HVN1828 VVPQ-VVTS
Flight info
| Callsign | HVN1828 |
|---|---|
| Flight time | 0h 50m |
| Altitude | 21000 |
| Route | TUNPO W8 RG W16 TRN |
| Aircraft | A321/M-L/L |
Departure
| Time | 2026-04-15 02:37 |
|---|---|
| Airport | Phú Quốc International Airport (VVPQ) |
Arrival
| Time | 2026-04-15 03:27 |
|---|---|
| Airport | Tan Son Nhat International Airport (VVTS) |
| Time | Latitude | Longitude | Altitude | Speed | Heading |
|---|---|---|---|---|---|
| 2026-04-15 02:07 | 10.16435 | 103.99711 | 31 ft | 0 kts | 185° |
| 2026-04-15 02:24 | 10.16446 | 103.99712 | 31 ft | 2 kts | 185° |
| 2026-04-15 02:25 | 10.16462 | 103.99714 | 31 ft | 2 kts | 185° |
| 2026-04-15 02:25 | 10.16477 | 103.99715 | 31 ft | 2 kts | 185° |
| 2026-04-15 02:25 | 10.16492 | 103.99716 | 31 ft | 2 kts | 185° |
| 2026-04-15 02:25 | 10.16502 | 103.99718 | 31 ft | 2 kts | 182° |
| 2026-04-15 02:26 | 10.16516 | 103.99713 | 31 ft | 2 kts | 141° |
| 2026-04-15 02:26 | 10.16525 | 103.99701 | 31 ft | 2 kts | 108° |
| 2026-04-15 02:26 | 10.16527 | 103.99693 | 31 ft | 1 kts | 90° |
| 2026-04-15 02:26 | 10.16527 | 103.99689 | 31 ft | 0 kts | 95° |
| 2026-04-15 02:28 | 10.16527 | 103.99690 | 31 ft | 0 kts | 95° |
| 2026-04-15 02:29 | 10.16526 | 103.99698 | 31 ft | 1 kts | 95° |
| 2026-04-15 02:29 | 10.16525 | 103.99712 | 31 ft | 2 kts | 95° |
| 2026-04-15 02:29 | 10.16523 | 103.99733 | 31 ft | 3 kts | 95° |
| 2026-04-15 02:29 | 10.16521 | 103.99759 | 31 ft | 4 kts | 95° |
| 2026-04-15 02:30 | 10.16518 | 103.99791 | 31 ft | 4 kts | 95° |
| 2026-04-15 02:30 | 10.16515 | 103.99828 | 31 ft | 5 kts | 95° |
| 2026-04-15 02:30 | 10.16511 | 103.99872 | 31 ft | 6 kts | 95° |
| 2026-04-15 02:30 | 10.16507 | 103.99921 | 31 ft | 7 kts | 95° |
| 2026-04-15 02:31 | 10.16502 | 103.99977 | 31 ft | 8 kts | 95° |
| 2026-04-15 02:31 | 10.16493 | 104.00040 | 31 ft | 9 kts | 98° |
| 2026-04-15 02:31 | 10.16489 | 104.00108 | 31 ft | 10 kts | 78° |
| 2026-04-15 02:31 | 10.16545 | 104.00144 | 31 ft | 10 kts | 3° |
| 2026-04-15 02:32 | 10.16623 | 104.00149 | 31 ft | 11 kts | 4° |
| 2026-04-15 02:32 | 10.16702 | 104.00160 | 31 ft | 11 kts | 30° |
| 2026-04-15 02:32 | 10.16716 | 104.00230 | 31 ft | 9 kts | 101° |
| 2026-04-15 02:32 | 10.16709 | 104.00303 | 31 ft | 10 kts | 91° |
| 2026-04-15 02:33 | 10.16705 | 104.00381 | 31 ft | 11 kts | 95° |
| 2026-04-15 02:33 | 10.16696 | 104.00463 | 31 ft | 12 kts | 96° |
| 2026-04-15 02:33 | 10.16687 | 104.00550 | 31 ft | 12 kts | 96° |
| 2026-04-15 02:33 | 10.16678 | 104.00642 | 31 ft | 13 kts | 94° |
| 2026-04-15 02:34 | 10.16702 | 104.00729 | 31 ft | 13 kts | 36° |
| 2026-04-15 02:34 | 10.16789 | 104.00728 | 31 ft | 9 kts | 342° |
| 2026-04-15 02:34 | 10.16843 | 104.00682 | 31 ft | 10 kts | 296° |
| 2026-04-15 02:34 | 10.16855 | 104.00629 | 31 ft | 0 kts | 276° |
| 2026-04-15 02:36 | 10.16859 | 104.00592 | 31 ft | 23 kts | 276° |
| 2026-04-15 02:36 | 10.16900 | 104.00169 | 31 ft | 94 kts | 275° |
| 2026-04-15 02:36 | 10.16986 | 103.99294 | 32 ft | 151 kts | 274° |
| 2026-04-15 02:36 | 10.17094 | 103.98196 | 399 ft | 163 kts | 274° |
| 2026-04-15 02:37 | 10.17223 | 103.97041 | 991 ft | 165 kts | 274° |
| 2026-04-15 02:37 | 10.17342 | 103.95907 | 1602 ft | 161 kts | 274° |
| 2026-04-15 02:37 | 10.17460 | 103.94739 | 1901 ft | 172 kts | 274° |
| 2026-04-15 02:37 | 10.17584 | 103.93491 | 2178 ft | 186 kts | 274° |
| 2026-04-15 02:38 | 10.17718 | 103.92123 | 2473 ft | 201 kts | 274° |
| 2026-04-15 02:38 | 10.17860 | 103.90661 | 2770 ft | 218 kts | 272° |
| 2026-04-15 02:38 | 10.17646 | 103.89094 | 3057 ft | 233 kts | 241° |
| 2026-04-15 02:38 | 10.16573 | 103.87921 | 3748 ft | 231 kts | 208° |
| 2026-04-15 02:39 | 10.15040 | 103.87487 | 4479 ft | 232 kts | 186° |
| 2026-04-15 02:39 | 10.13444 | 103.87344 | 5180 ft | 236 kts | 184° |
| 2026-04-15 02:39 | 10.11798 | 103.87209 | 5903 ft | 240 kts | 184° |
| 2026-04-15 02:39 | 10.10152 | 103.87061 | 6637 ft | 244 kts | 185° |
| 2026-04-15 02:40 | 10.08460 | 103.87116 | 7374 ft | 247 kts | 162° |
| 2026-04-15 02:40 | 10.07012 | 103.87981 | 8115 ft | 248 kts | 132° |
| 2026-04-15 02:40 | 10.06186 | 103.89470 | 8867 ft | 249 kts | 102° |
| 2026-04-15 02:40 | 10.05959 | 103.91215 | 9669 ft | 250 kts | 95° |
| 2026-04-15 02:41 | 10.05817 | 103.92978 | 10440 ft | 253 kts | 95° |
| 2026-04-15 02:41 | 10.05673 | 103.94718 | 11301 ft | 250 kts | 95° |
| 2026-04-15 02:41 | 10.05518 | 103.96454 | 12172 ft | 247 kts | 96° |
| 2026-04-15 02:41 | 10.05352 | 103.98199 | 12900 ft | 250 kts | 96° |
| 2026-04-15 02:42 | 10.05180 | 103.99951 | 13580 ft | 253 kts | 96° |
| 2026-04-15 02:42 | 10.05004 | 104.01732 | 14268 ft | 256 kts | 96° |
| 2026-04-15 02:42 | 10.04828 | 104.03508 | 14927 ft | 259 kts | 96° |
| 2026-04-15 02:42 | 10.04647 | 104.05346 | 15598 ft | 262 kts | 96° |
| 2026-04-15 02:43 | 10.04468 | 104.07177 | 16249 ft | 265 kts | 96° |
| 2026-04-15 02:43 | 10.04287 | 104.09027 | 16895 ft | 268 kts | 96° |
| 2026-04-15 02:43 | 10.04102 | 104.10907 | 17540 ft | 271 kts | 96° |
| 2026-04-15 02:43 | 10.03914 | 104.12810 | 18169 ft | 274 kts | 96° |
| 2026-04-15 02:44 | 10.03722 | 104.14750 | 18806 ft | 277 kts | 96° |
| 2026-04-15 02:44 | 10.03530 | 104.16687 | 19429 ft | 279 kts | 96° |
| 2026-04-15 02:44 | 10.03335 | 104.18645 | 20045 ft | 282 kts | 96° |
| 2026-04-15 02:44 | 10.03134 | 104.20645 | 20593 ft | 288 kts | 96° |
| 2026-04-15 02:45 | 10.02926 | 104.22714 | 20861 ft | 304 kts | 96° |
| 2026-04-15 02:45 | 10.02705 | 104.24919 | 20887 ft | 328 kts | 96° |
| 2026-04-15 02:45 | 10.02467 | 104.27310 | 20894 ft | 352 kts | 96° |
| 2026-04-15 02:45 | 10.02168 | 104.29821 | 20892 ft | 373 kts | 101° |
| 2026-04-15 02:46 | 10.01427 | 104.32426 | 20896 ft | 393 kts | 112° |
| 2026-04-15 02:46 | 10.00134 | 104.34935 | 20895 ft | 411 kts | 124° |
| 2026-04-15 02:46 | 9.98458 | 104.37277 | 20897 ft | 419 kts | 127° |
| 2026-04-15 02:46 | 9.96660 | 104.39632 | 20895 ft | 420 kts | 128° |
| 2026-04-15 02:47 | 9.94879 | 104.41955 | 20894 ft | 420 kts | 128° |
| 2026-04-15 02:47 | 9.93092 | 104.44307 | 20893 ft | 420 kts | 127° |
| 2026-04-15 02:47 | 9.91305 | 104.46680 | 20893 ft | 420 kts | 127° |
| 2026-04-15 02:47 | 9.89540 | 104.49035 | 20893 ft | 420 kts | 127° |
| 2026-04-15 02:48 | 9.87982 | 104.51511 | 20893 ft | 420 kts | 118° |
| 2026-04-15 02:48 | 9.86817 | 104.54208 | 20894 ft | 421 kts | 109° |
| 2026-04-15 02:48 | 9.86061 | 104.57082 | 20898 ft | 421 kts | 102° |
| 2026-04-15 02:48 | 9.85500 | 104.59985 | 20895 ft | 421 kts | 101° |
| 2026-04-15 02:49 | 9.84974 | 104.62890 | 20894 ft | 421 kts | 100° |
| 2026-04-15 02:49 | 9.84493 | 104.65546 | 20918 ft | 417 kts | 101° |
| 2026-04-15 02:49 | 9.84099 | 104.67681 | 20927 ft | 414 kts | 101° |
| 2026-04-15 02:49 | 9.83568 | 104.70529 | 20939 ft | 413 kts | 101° |
| 2026-04-15 02:50 | 9.83032 | 104.73382 | 20953 ft | 413 kts | 101° |
| 2026-04-15 02:50 | 9.82496 | 104.76228 | 20963 ft | 413 kts | 101° |
| 2026-04-15 02:50 | 9.81951 | 104.79109 | 20970 ft | 413 kts | 101° |
| 2026-04-15 02:50 | 9.81412 | 104.81960 | 20975 ft | 413 kts | 101° |
| 2026-04-15 02:51 | 9.80874 | 104.84802 | 20978 ft | 412 kts | 101° |
| 2026-04-15 02:51 | 9.80352 | 104.87643 | 20977 ft | 412 kts | 98° |
| 2026-04-15 02:51 | 9.80337 | 104.90544 | 20975 ft | 413 kts | 82° |
| 2026-04-15 02:51 | 9.81170 | 104.93328 | 20979 ft | 415 kts | 65° |
| 2026-04-15 02:52 | 9.82714 | 104.95779 | 20990 ft | 416 kts | 54° |
| 2026-04-15 02:52 | 9.84469 | 104.98100 | 20985 ft | 416 kts | 52° |
| 2026-04-15 02:52 | 9.86234 | 105.00388 | 20983 ft | 416 kts | 53° |
| 2026-04-15 02:52 | 9.88018 | 105.02720 | 20982 ft | 416 kts | 53° |
| 2026-04-15 02:53 | 9.89778 | 105.05048 | 20981 ft | 416 kts | 53° |
| 2026-04-15 02:53 | 9.91506 | 105.07351 | 20981 ft | 416 kts | 53° |
| 2026-04-15 02:53 | 9.93253 | 105.09689 | 20981 ft | 415 kts | 53° |
| 2026-04-15 02:53 | 9.94843 | 105.12116 | 20978 ft | 415 kts | 61° |
| 2026-04-15 02:54 | 9.96065 | 105.14746 | 20977 ft | 413 kts | 70° |
| 2026-04-15 02:54 | 9.96900 | 105.17542 | 20979 ft | 413 kts | 77° |
| 2026-04-15 02:54 | 9.97526 | 105.20366 | 20980 ft | 413 kts | 78° |
| 2026-04-15 02:54 | 9.98122 | 105.23228 | 20981 ft | 413 kts | 79° |
| 2026-04-15 02:55 | 9.98718 | 105.26083 | 20981 ft | 412 kts | 78° |
| 2026-04-15 02:55 | 9.99315 | 105.28898 | 20981 ft | 413 kts | 78° |
| 2026-04-15 02:55 | 9.99929 | 105.31755 | 20981 ft | 413 kts | 78° |
| 2026-04-15 02:55 | 10.00536 | 105.34566 | 20981 ft | 413 kts | 78° |
| 2026-04-15 02:56 | 10.01151 | 105.37398 | 20981 ft | 413 kts | 78° |
| 2026-04-15 02:56 | 10.01774 | 105.40270 | 20981 ft | 412 kts | 78° |
| 2026-04-15 02:56 | 10.02387 | 105.43101 | 20981 ft | 412 kts | 78° |
| 2026-04-15 02:56 | 10.02997 | 105.45922 | 20981 ft | 413 kts | 78° |
| 2026-04-15 02:57 | 10.03610 | 105.48766 | 20981 ft | 413 kts | 78° |
| 2026-04-15 02:57 | 10.04222 | 105.51597 | 20981 ft | 413 kts | 78° |
| 2026-04-15 02:57 | 10.04835 | 105.54431 | 20981 ft | 413 kts | 78° |
| 2026-04-15 02:57 | 10.05451 | 105.57277 | 20981 ft | 413 kts | 78° |
| 2026-04-15 02:58 | 10.06064 | 105.60104 | 20981 ft | 412 kts | 78° |
| 2026-04-15 02:58 | 10.06680 | 105.62948 | 20981 ft | 412 kts | 78° |
| 2026-04-15 02:58 | 10.07300 | 105.65812 | 20981 ft | 412 kts | 78° |
| 2026-04-15 02:58 | 10.07921 | 105.68641 | 20981 ft | 412 kts | 77° |
| 2026-04-15 02:59 | 10.08655 | 105.71424 | 20982 ft | 412 kts | 74° |
| 2026-04-15 02:59 | 10.09538 | 105.74191 | 20983 ft | 412 kts | 72° |
| 2026-04-15 02:59 | 10.10467 | 105.76942 | 20982 ft | 412 kts | 72° |
| 2026-04-15 02:59 | 10.11407 | 105.79676 | 20981 ft | 412 kts | 71° |
| 2026-04-15 03:00 | 10.12353 | 105.82426 | 20981 ft | 412 kts | 72° |
| 2026-04-15 03:00 | 10.13293 | 105.85181 | 20981 ft | 412 kts | 72° |
| 2026-04-15 03:00 | 10.14227 | 105.87928 | 20981 ft | 412 kts | 72° |
| 2026-04-15 03:00 | 10.15155 | 105.90668 | 20981 ft | 412 kts | 72° |
| 2026-04-15 03:01 | 10.16080 | 105.93407 | 20974 ft | 416 kts | 72° |
| 2026-04-15 03:01 | 10.17024 | 105.96204 | 20961 ft | 418 kts | 72° |
| 2026-04-15 03:01 | 10.17963 | 105.98990 | 20949 ft | 418 kts | 72° |
| 2026-04-15 03:01 | 10.18906 | 106.01789 | 20939 ft | 419 kts | 72° |
| 2026-04-15 03:02 | 10.19848 | 106.04583 | 20932 ft | 419 kts | 72° |
| 2026-04-15 03:02 | 10.20791 | 106.07385 | 20927 ft | 419 kts | 72° |
| 2026-04-15 03:02 | 10.21724 | 106.10161 | 20925 ft | 419 kts | 72° |
| 2026-04-15 03:02 | 10.22658 | 106.12937 | 20923 ft | 419 kts | 72° |
| 2026-04-15 03:03 | 10.23606 | 106.15758 | 20922 ft | 419 kts | 72° |
| 2026-04-15 03:03 | 10.24548 | 106.18559 | 20921 ft | 419 kts | 72° |
| 2026-04-15 03:03 | 10.25488 | 106.21325 | 20919 ft | 419 kts | 70° |
| 2026-04-15 03:03 | 10.26714 | 106.24047 | 20583 ft | 421 kts | 62° |
| 2026-04-15 03:04 | 10.28308 | 106.26495 | 20009 ft | 417 kts | 52° |
| 2026-04-15 03:04 | 10.30210 | 106.28689 | 19447 ft | 413 kts | 47° |
| 2026-04-15 03:04 | 10.32176 | 106.30769 | 18890 ft | 409 kts | 46° |
| 2026-04-15 03:04 | 10.34131 | 106.32812 | 18330 ft | 405 kts | 46° |
| 2026-04-15 03:05 | 10.36079 | 106.34855 | 17760 ft | 401 kts | 46° |
| 2026-04-15 03:05 | 10.38016 | 106.36897 | 17187 ft | 397 kts | 46° |
| 2026-04-15 03:05 | 10.39914 | 106.38907 | 16607 ft | 393 kts | 46° |
| 2026-04-15 03:05 | 10.41768 | 106.40874 | 16017 ft | 391 kts | 46° |
| 2026-04-15 03:06 | 10.43651 | 106.42877 | 15437 ft | 388 kts | 46° |
| 2026-04-15 03:06 | 10.45499 | 106.44845 | 14892 ft | 384 kts | 46° |
| 2026-04-15 03:06 | 10.47309 | 106.46775 | 14357 ft | 381 kts | 47° |
| 2026-04-15 03:06 | 10.49143 | 106.48733 | 13804 ft | 377 kts | 47° |
| 2026-04-15 03:07 | 10.50921 | 106.50633 | 13261 ft | 374 kts | 47° |
| 2026-04-15 03:07 | 10.52703 | 106.52533 | 12715 ft | 371 kts | 47° |
| 2026-04-15 03:07 | 10.54467 | 106.54415 | 12302 ft | 363 kts | 47° |
| 2026-04-15 03:07 | 10.56167 | 106.56263 | 12112 ft | 348 kts | 51° |
| 2026-04-15 03:08 | 10.57257 | 106.58366 | 11899 ft | 332 kts | 77° |
| 2026-04-15 03:08 | 10.57340 | 106.60620 | 11728 ft | 317 kts | 101° |
| 2026-04-15 03:08 | 10.56663 | 106.62695 | 11561 ft | 304 kts | 113° |
| 2026-04-15 03:08 | 10.55830 | 106.64649 | 11381 ft | 293 kts | 114° |
| 2026-04-15 03:09 | 10.55037 | 106.66512 | 11210 ft | 283 kts | 113° |
| 2026-04-15 03:09 | 10.54291 | 106.68324 | 11042 ft | 273 kts | 112° |
| 2026-04-15 03:09 | 10.53586 | 106.70074 | 10812 ft | 266 kts | 112° |
| 2026-04-15 03:09 | 10.52894 | 106.71806 | 10387 ft | 268 kts | 112° |
| 2026-04-15 03:10 | 10.52190 | 106.73574 | 9965 ft | 268 kts | 111° |
| 2026-04-15 03:10 | 10.51495 | 106.75317 | 9567 ft | 268 kts | 111° |
| 2026-04-15 03:10 | 10.50798 | 106.77066 | 9270 ft | 263 kts | 111° |
| 2026-04-15 03:10 | 10.50115 | 106.78778 | 8953 ft | 260 kts | 111° |
| 2026-04-15 03:11 | 10.49446 | 106.80456 | 8611 ft | 258 kts | 111° |
| 2026-04-15 03:11 | 10.48776 | 106.82141 | 8319 ft | 254 kts | 111° |
| 2026-04-15 03:11 | 10.48139 | 106.83798 | 8020 ft | 251 kts | 106° |
| 2026-04-15 03:11 | 10.47937 | 106.85538 | 7658 ft | 249 kts | 85° |
| 2026-04-15 03:12 | 10.48256 | 106.87247 | 7316 ft | 248 kts | 76° |
| 2026-04-15 03:12 | 10.48692 | 106.88941 | 7075 ft | 246 kts | 75° |
| 2026-04-15 03:12 | 10.49135 | 106.90631 | 7050 ft | 248 kts | 76° |
| 2026-04-15 03:12 | 10.49572 | 106.92330 | 7046 ft | 249 kts | 76° |
| 2026-04-15 03:13 | 10.50003 | 106.94039 | 7044 ft | 249 kts | 76° |
| 2026-04-15 03:13 | 10.50423 | 106.95725 | 7044 ft | 249 kts | 76° |
| 2026-04-15 03:13 | 10.50876 | 106.97424 | 7043 ft | 249 kts | 73° |
| 2026-04-15 03:13 | 10.51462 | 106.99092 | 7043 ft | 249 kts | 69° |
| 2026-04-15 03:14 | 10.52094 | 107.00720 | 7043 ft | 249 kts | 69° |
| 2026-04-15 03:14 | 10.52735 | 107.02354 | 7043 ft | 249 kts | 69° |
| 2026-04-15 03:14 | 10.53380 | 107.03998 | 7043 ft | 249 kts | 69° |
| 2026-04-15 03:14 | 10.54015 | 107.05621 | 7043 ft | 249 kts | 69° |
| 2026-04-15 03:15 | 10.54654 | 107.07258 | 7043 ft | 249 kts | 69° |
| 2026-04-15 03:15 | 10.55298 | 107.08896 | 7026 ft | 250 kts | 66° |
| 2026-04-15 03:15 | 10.56331 | 107.10282 | 6873 ft | 251 kts | 34° |
| 2026-04-15 03:15 | 10.57977 | 107.10816 | 6751 ft | 253 kts | 1° |
| 2026-04-15 03:16 | 10.59697 | 107.10437 | 6624 ft | 255 kts | 333° |
| 2026-04-15 03:16 | 10.61128 | 107.09389 | 6506 ft | 255 kts | 320° |
| 2026-04-15 03:16 | 10.62448 | 107.08213 | 6382 ft | 254 kts | 320° |
| 2026-04-15 03:16 | 10.63833 | 107.07102 | 6258 ft | 254 kts | 324° |
| 2026-04-15 03:17 | 10.65276 | 107.06041 | 6131 ft | 253 kts | 325° |
| 2026-04-15 03:17 | 10.66711 | 107.05012 | 6007 ft | 253 kts | 325° |
| 2026-04-15 03:17 | 10.68145 | 107.03990 | 5882 ft | 253 kts | 325° |
| 2026-04-15 03:17 | 10.69575 | 107.02970 | 5758 ft | 252 kts | 325° |
| 2026-04-15 03:18 | 10.71011 | 107.01943 | 5633 ft | 252 kts | 325° |
| 2026-04-15 03:18 | 10.72443 | 107.00919 | 5505 ft | 252 kts | 325° |
| 2026-04-15 03:18 | 10.73865 | 106.99902 | 5366 ft | 247 kts | 325° |
| 2026-04-15 03:18 | 10.75240 | 106.98918 | 5223 ft | 238 kts | 325° |
| 2026-04-15 03:19 | 10.76568 | 106.97968 | 5078 ft | 229 kts | 325° |
| 2026-04-15 03:19 | 10.77839 | 106.97057 | 4933 ft | 222 kts | 325° |
| 2026-04-15 03:19 | 10.79099 | 106.96155 | 4733 ft | 222 kts | 325° |
| 2026-04-15 03:19 | 10.80367 | 106.95248 | 4497 ft | 221 kts | 325° |
| 2026-04-15 03:20 | 10.81624 | 106.94347 | 4419 ft | 220 kts | 325° |
| 2026-04-15 03:20 | 10.82867 | 106.93456 | 4375 ft | 221 kts | 325° |
| 2026-04-15 03:20 | 10.84130 | 106.92552 | 4317 ft | 221 kts | 325° |
| 2026-04-15 03:20 | 10.85385 | 106.91653 | 4212 ft | 221 kts | 325° |
| 2026-04-15 03:21 | 10.86623 | 106.90742 | 4006 ft | 222 kts | 318° |
| 2026-04-15 03:21 | 10.87689 | 106.87902 | 3342 ft | 221 kts | 274° |
| 2026-04-15 03:21 | 10.87828 | 106.86357 | 3005 ft | 222 kts | 274° |
| 2026-04-15 03:22 | 10.88000 | 106.84783 | 2662 ft | 223 kts | 276° |
| 2026-04-15 03:22 | 10.88203 | 106.83212 | 2282 ft | 226 kts | 273° |
| 2026-04-15 03:22 | 10.88116 | 106.81644 | 2054 ft | 219 kts | 257° |
| 2026-04-15 03:22 | 10.87727 | 106.80210 | 2045 ft | 202 kts | 250° |
| 2026-04-15 03:23 | 10.87269 | 106.78944 | 2099 ft | 181 kts | 247° |
| 2026-04-15 03:23 | 10.86835 | 106.77820 | 2085 ft | 156 kts | 246° |
| 2026-04-15 03:23 | 10.86465 | 106.76859 | 2034 ft | 141 kts | 246° |
| 2026-04-15 03:23 | 10.86116 | 106.75946 | 2001 ft | 138 kts | 247° |
| 2026-04-15 03:24 | 10.85768 | 106.75028 | 1824 ft | 137 kts | 247° |
| 2026-04-15 03:24 | 10.85434 | 106.74139 | 1644 ft | 135 kts | 247° |
| 2026-04-15 03:24 | 10.85097 | 106.73244 | 1468 ft | 134 kts | 247° |
| 2026-04-15 03:24 | 10.84766 | 106.72363 | 1289 ft | 132 kts | 247° |
| 2026-04-15 03:25 | 10.84439 | 106.71495 | 1116 ft | 131 kts | 247° |
| 2026-04-15 03:25 | 10.84116 | 106.70637 | 944 ft | 131 kts | 246° |
| 2026-04-15 03:25 | 10.83791 | 106.69775 | 770 ft | 130 kts | 248° |
| 2026-04-15 03:25 | 10.83470 | 106.68905 | 618 ft | 130 kts | 247° |
| 2026-04-15 03:26 | 10.83144 | 106.68057 | 423 ft | 129 kts | 246° |
| 2026-04-15 03:26 | 10.82808 | 106.67197 | 261 ft | 130 kts | 247° |
| 2026-04-15 03:26 | 10.82494 | 106.66343 | 91 ft | 129 kts | 247° |
| 2026-04-15 03:26 | 10.82188 | 106.65536 | 42 ft | 107 kts | 249° |
| 2026-04-15 03:27 | 10.81989 | 106.65004 | 42 ft | 51 kts | 248° |
| 2026-04-15 03:27 | 10.81885 | 106.64745 | 42 ft | 31 kts | 244° |